createdAt,value
2022-07-29T00:01:22.634Z,21.61
2022-07-29T00:03:51.119Z,22.47
2022-07-29T00:06:19.458Z,22.10
2022-07-29T00:08:47.678Z,22.55
2022-07-29T00:11:16.268Z,21.75
2022-07-29T00:13:50.769Z,22.56
2022-07-29T00:16:19.459Z,22.54
2022-07-29T00:18:47.969Z,22.30
2022-07-29T00:21:16.299Z,22.51
2022-07-29T00:23:44.594Z,21.76
2022-07-29T00:26:12.945Z,22.34
2022-07-29T00:28:41.121Z,22.01
2022-07-29T00:31:10.797Z,21.03
2022-07-29T00:33:39.048Z,21.63
2022-07-29T00:36:06.661Z,21.84
2022-07-29T00:38:34.983Z,21.75
2022-07-29T00:41:03.515Z,21.92
2022-07-29T00:43:31.815Z,22.02
2022-07-29T00:45:59.990Z,22.04
2022-07-29T00:48:29.943Z,22.08
2022-07-29T00:50:59.674Z,22.11
2022-07-29T00:53:29.700Z,22.21
2022-07-29T00:55:58.920Z,22.17
2022-07-29T00:58:28.802Z,21.15
2022-07-29T01:00:57.215Z,22.14
2022-07-29T01:03:26.135Z,22.11
2022-07-29T01:05:56.627Z,22.10
2022-07-29T01:08:25.649Z,22.09
2022-07-29T01:10:55.329Z,22.14
2022-07-29T01:13:24.906Z,21.53
2022-07-29T01:15:59.151Z,22.05
2022-07-29T01:18:34.230Z,22.07
2022-07-29T01:21:49.344Z,22.13
2022-07-29T01:24:36.236Z,22.05
2022-07-29T01:27:24.664Z,22.07
2022-07-29T01:29:59.014Z,22.13
2022-07-29T01:32:31.380Z,21.47
2022-07-29T01:35:05.875Z,22.14
2022-07-29T01:37:40.856Z,22.17
2022-07-29T01:40:16.603Z,22.00
2022-07-29T01:42:46.829Z,21.56
2022-07-29T01:45:19.371Z,21.87
2022-07-29T01:47:55.650Z,21.74
2022-07-29T01:50:29.188Z,21.40
2022-07-29T01:53:00.749Z,21.72
2022-07-29T01:55:33.414Z,21.49
2022-07-29T01:58:03.906Z,21.71
2022-07-29T02:00:35.535Z,21.58
2022-07-29T02:03:08.059Z,21.58
2022-07-29T02:05:39.594Z,20.63
2022-07-29T02:08:08.929Z,21.55
2022-07-29T02:10:40.683Z,20.89
2022-07-29T02:13:11.614Z,21.34
2022-07-29T02:15:44.813Z,21.48
2022-07-29T02:18:17.985Z,21.44
2022-07-29T02:20:49.503Z,21.18
2022-07-29T02:23:22.052Z,21.33
2022-07-29T02:25:53.571Z,21.27
2022-07-29T02:28:24.428Z,21.24
2022-07-29T02:30:58.024Z,21.19
2022-07-29T02:33:27.721Z,21.04
2022-07-29T02:35:57.881Z,21.15
2022-07-29T02:38:46.153Z,20.43
2022-07-29T02:41:17.774Z,20.96
2022-07-29T02:43:49.214Z,21.02
2022-07-29T02:46:29.394Z,20.90
2022-07-29T02:49:01.621Z,20.38
2022-07-29T02:51:43.573Z,20.02
2022-07-29T02:54:21.926Z,20.74
2022-07-29T02:56:53.799Z,20.42
2022-07-29T02:59:25.698Z,20.77
2022-07-29T03:01:57.861Z,20.81
2022-07-29T03:04:29.739Z,20.27
2022-07-29T03:07:01.610Z,20.79
2022-07-29T03:09:30.880Z,20.71
2022-07-29T03:11:59.750Z,20.66
2022-07-29T03:14:28.778Z,19.81
2022-07-29T03:16:58.876Z,20.57
2022-07-29T03:19:28.379Z,20.58
2022-07-29T03:21:58.785Z,20.61
2022-07-29T03:24:32.786Z,20.53
2022-07-29T03:27:01.478Z,20.04
2022-07-29T03:29:33.792Z,20.36
2022-07-29T03:32:08.454Z,20.47
2022-07-29T03:34:38.641Z,20.39
2022-07-29T03:37:08.159Z,20.24
2022-07-29T03:39:41.829Z,19.71
2022-07-29T03:42:12.677Z,20.26
2022-07-29T03:44:43.450Z,20.15
2022-07-29T03:47:16.304Z,20.11
2022-07-29T03:49:46.795Z,20.29
2022-07-29T03:52:15.642Z,19.84
2022-07-29T03:54:43.976Z,20.03
2022-07-29T03:57:13.862Z,20.07
2022-07-29T03:59:42.848Z,19.40
2022-07-29T04:02:14.906Z,19.99
2022-07-29T04:04:46.245Z,19.40
2022-07-29T04:07:15.485Z,19.83
2022-07-29T04:09:44.255Z,20.12
2022-07-29T04:12:12.977Z,20.28
2022-07-29T04:14:41.279Z,20.29
2022-07-29T04:17:09.969Z,19.55
2022-07-29T04:19:39.616Z,20.00
2022-07-29T04:22:07.913Z,20.40
2022-07-29T04:24:37.096Z,20.48
2022-07-29T04:27:05.442Z,20.50
2022-07-29T04:29:33.786Z,20.78
2022-07-29T04:32:02.423Z,20.92
2022-07-29T04:34:30.700Z,21.11
2022-07-29T04:37:00.373Z,21.18
2022-07-29T04:39:30.414Z,21.10
2022-07-29T04:41:59.145Z,21.02
2022-07-29T04:44:28.550Z,21.20
2022-07-29T04:46:58.943Z,21.63
2022-07-29T04:49:27.603Z,21.78
2022-07-29T04:51:56.590Z,21.97
2022-07-29T04:54:26.473Z,21.78
2022-07-29T04:56:54.736Z,21.17
2022-07-29T04:59:23.796Z,21.81
2022-07-29T05:01:52.140Z,21.84
2022-07-29T05:04:20.888Z,21.94
2022-07-29T05:06:49.559Z,21.91
2022-07-29T05:09:18.126Z,22.19
2022-07-29T05:11:47.732Z,21.93
2022-07-29T05:14:16.408Z,22.54
2022-07-29T05:16:44.983Z,22.55
2022-07-29T05:19:14.556Z,22.56
2022-07-29T05:21:43.924Z,22.02
2022-07-29T05:24:12.871Z,22.58
2022-07-29T05:26:41.951Z,22.68
2022-07-29T05:29:44.664Z,22.51
2022-07-29T05:32:00.637Z,22.57
2022-07-29T05:34:29.054Z,22.90
2022-07-29T05:36:57.665Z,23.05
2022-07-29T05:39:47.198Z,23.20
2022-07-29T05:42:14.374Z,23.41
2022-07-29T05:44:44.175Z,22.83
2022-07-29T05:47:13.540Z,23.47
2022-07-29T05:49:41.789Z,23.57
2022-07-29T05:52:11.203Z,22.75
2022-07-29T05:54:39.570Z,23.74
2022-07-29T05:57:08.703Z,23.86
2022-07-29T05:59:38.231Z,24.05
2022-07-29T06:02:07.956Z,24.23
2022-07-29T06:04:36.796Z,23.54
2022-07-29T06:07:05.310Z,24.55
2022-07-29T06:09:36.141Z,24.67
2022-07-29T06:12:05.361Z,24.74
2022-07-29T06:14:33.867Z,24.56
2022-07-29T06:17:02.107Z,24.61
2022-07-29T06:19:31.871Z,24.84
2022-07-29T06:22:00.198Z,25.19
2022-07-29T06:24:28.466Z,25.08
2022-07-29T06:26:57.116Z,24.55
2022-07-29T06:29:25.563Z,24.52
2022-07-29T06:31:53.963Z,25.20
2022-07-29T06:34:22.538Z,25.23
2022-07-29T06:36:54.215Z,25.20
2022-07-29T06:39:23.165Z,25.28
2022-07-29T06:41:52.558Z,25.43
2022-07-29T06:44:21.099Z,25.16
2022-07-29T06:46:51.022Z,25.78
2022-07-29T06:49:19.440Z,25.59
2022-07-29T06:51:48.211Z,26.01
2022-07-29T06:54:18.338Z,26.03
2022-07-29T06:56:47.075Z,25.15
2022-07-29T06:59:15.585Z,25.05
2022-07-29T07:01:45.474Z,26.07
2022-07-29T07:04:14.786Z,26.12
2022-07-29T07:06:43.510Z,25.73
2022-07-29T07:09:11.815Z,26.40
2022-07-29T07:11:41.835Z,26.42
2022-07-29T07:14:10.060Z,26.17
2022-07-29T07:16:38.399Z,26.40
2022-07-29T07:19:06.833Z,26.54
2022-07-29T07:21:36.065Z,26.72
2022-07-29T07:24:08.440Z,26.83
2022-07-29T07:26:36.964Z,26.82
2022-07-29T07:29:06.628Z,27.09
2022-07-29T07:31:35.014Z,26.97
2022-07-29T07:34:03.303Z,27.44
2022-07-29T07:36:31.988Z,27.34
2022-07-29T07:39:00.232Z,27.43
2022-07-29T07:41:32.479Z,27.31
2022-07-29T07:44:01.310Z,27.24
2022-07-29T07:46:31.430Z,27.37
2022-07-29T07:48:59.701Z,27.50
2022-07-29T07:51:28.150Z,27.69
2022-07-29T07:53:56.390Z,26.74
2022-07-29T07:56:25.941Z,27.30
2022-07-29T07:58:54.152Z,28.12
2022-07-29T08:01:24.186Z,28.25
2022-07-29T08:03:53.923Z,28.21
2022-07-29T08:06:22.485Z,28.11
2022-07-29T08:08:51.987Z,28.34
2022-07-29T08:11:20.329Z,28.36
2022-07-29T08:13:48.746Z,28.46
2022-07-29T08:16:17.316Z,28.57
2022-07-29T08:18:47.154Z,28.59
2022-07-29T08:21:17.516Z,28.24
2022-07-29T08:23:57.991Z,28.63
2022-07-29T08:26:27.314Z,28.82
2022-07-29T08:28:55.728Z,28.75
2022-07-29T08:31:24.178Z,29.09
2022-07-29T08:33:52.592Z,28.56
2022-07-29T08:36:23.476Z,29.08
2022-07-29T08:38:52.188Z,29.06
2022-07-29T08:41:21.231Z,28.77
2022-07-29T08:43:49.768Z,27.92
2022-07-29T08:46:18.747Z,27.14
2022-07-29T08:48:47.316Z,28.34
2022-07-29T08:51:17.960Z,28.18
2022-07-29T08:53:50.018Z,28.12
2022-07-29T08:56:19.990Z,28.12
2022-07-29T08:58:51.867Z,27.99
2022-07-29T09:01:36.482Z,26.84
2022-07-29T09:04:14.176Z,27.33
2022-07-29T09:06:47.312Z,27.34
2022-07-29T09:09:17.942Z,27.21
2022-07-29T09:11:46.610Z,27.19
2022-07-29T09:14:15.774Z,27.17
2022-07-29T09:16:53.435Z,27.16
2022-07-29T09:19:27.723Z,27.12
2022-07-29T09:22:03.613Z,27.08
2022-07-29T09:24:45.441Z,27.05
2022-07-29T09:27:23.393Z,27.07
2022-07-29T09:30:02.578Z,27.06
2022-07-29T09:32:32.362Z,27.04
2022-07-29T09:35:22.421Z,26.92
2022-07-29T09:37:51.555Z,26.76
2022-07-29T09:40:23.370Z,27.10
2022-07-29T09:42:52.261Z,27.12
2022-07-29T09:45:31.972Z,27.17
2022-07-29T09:48:04.298Z,27.10
2022-07-29T09:50:40.454Z,27.28
2022-07-29T09:53:10.761Z,27.41
2022-07-29T09:55:51.858Z,27.41
2022-07-29T09:58:20.888Z,27.74
2022-07-29T10:00:51.173Z,27.79
2022-07-29T10:03:19.904Z,27.68
2022-07-29T10:05:48.701Z,27.42
2022-07-29T10:08:27.820Z,27.15
2022-07-29T10:11:12.255Z,27.06
2022-07-29T10:13:41.651Z,26.94
2022-07-29T10:16:11.020Z,26.94
2022-07-29T10:18:41.895Z,26.84
2022-07-29T10:21:11.251Z,26.19
2022-07-29T10:23:52.404Z,25.82
2022-07-29T10:26:22.853Z,26.79
2022-07-29T10:28:51.361Z,26.15
2022-07-29T10:31:30.355Z,26.18
2022-07-29T10:34:09.817Z,26.67
2022-07-29T10:36:51.380Z,26.92
2022-07-29T10:42:33.592Z,26.96
2022-07-29T10:45:04.358Z,27.01
2022-07-29T10:47:35.067Z,27.06
2022-07-29T10:50:05.986Z,26.82
2022-07-29T10:52:55.533Z,27.12
2022-07-29T10:55:47.795Z,27.29
2022-07-29T10:58:19.585Z,27.14
2022-07-29T11:00:49.511Z,27.43
2022-07-29T11:03:49.274Z,27.62
2022-07-29T11:06:26.999Z,27.93
2022-07-29T11:09:20.105Z,28.20
2022-07-29T11:11:51.595Z,28.42
2022-07-29T11:15:02.820Z,28.88
2022-07-29T11:17:47.120Z,28.84
2022-07-29T11:20:37.934Z,28.76
2022-07-29T11:23:24.669Z,28.95
2022-07-29T11:26:18.891Z,29.21
2022-07-29T11:28:56.061Z,29.55
2022-07-29T11:31:37.914Z,29.70
2022-07-29T11:34:27.988Z,30.22
2022-07-29T11:37:31.097Z,30.44
2022-07-29T11:40:21.391Z,30.40
2022-07-29T11:42:52.396Z,30.13
2022-07-29T11:48:28.820Z,28.67
2022-07-29T11:51:02.978Z,28.89
2022-07-29T11:53:32.783Z,28.74
2022-07-29T11:56:03.445Z,27.73
2022-07-29T11:58:32.726Z,28.86
2022-07-29T12:01:04.923Z,28.65
2022-07-29T12:03:36.820Z,28.72
2022-07-29T12:06:13.845Z,28.67
2022-07-29T12:08:45.134Z,28.03
2022-07-29T12:11:22.606Z,27.80
2022-07-29T12:13:52.288Z,28.39
2022-07-29T12:16:27.935Z,28.37
2022-07-29T12:19:04.245Z,28.65
2022-07-29T12:21:56.187Z,28.79
2022-07-29T12:24:26.574Z,28.92
2022-07-29T12:26:57.220Z,28.65
2022-07-29T12:29:35.584Z,29.02
2022-07-29T12:32:14.721Z,28.74
2022-07-29T12:34:49.636Z,28.68
2022-07-29T12:37:18.099Z,29.15
2022-07-29T12:39:46.578Z,28.68
2022-07-29T12:42:18.392Z,28.05
2022-07-29T12:44:51.499Z,28.13
2022-07-29T12:47:20.758Z,28.63
2022-07-29T12:49:51.925Z,28.58
2022-07-29T12:52:27.672Z,28.45
2022-07-29T12:54:56.261Z,28.43
2022-07-29T12:57:25.103Z,28.16
2022-07-29T13:00:08.940Z,28.33
2022-07-29T13:02:37.526Z,28.28
2022-07-29T13:05:09.446Z,27.86
2022-07-29T13:07:54.608Z,28.23
2022-07-29T13:10:26.193Z,28.04
2022-07-29T13:13:05.581Z,28.59
2022-07-29T13:15:34.279Z,28.62
2022-07-29T13:18:02.759Z,28.75
2022-07-29T13:20:33.187Z,28.77
2022-07-29T13:23:02.798Z,28.89
2022-07-29T13:25:33.131Z,28.58
2022-07-29T13:28:01.891Z,29.24
2022-07-29T13:30:30.459Z,29.35
2022-07-29T13:32:58.804Z,29.02
2022-07-29T13:35:27.008Z,30.48
2022-07-29T13:37:56.614Z,31.35
2022-07-29T13:40:24.829Z,31.52
2022-07-29T13:42:53.155Z,31.56
2022-07-29T13:45:21.450Z,31.42
2022-07-29T13:47:49.644Z,31.21
2022-07-29T13:50:17.814Z,30.00
2022-07-29T13:52:46.027Z,31.12
2022-07-29T13:55:15.718Z,31.08
2022-07-29T13:57:44.050Z,30.97
2022-07-29T14:00:13.979Z,30.17
2022-07-29T14:02:42.169Z,31.04
2022-07-29T14:05:11.893Z,31.55
2022-07-29T14:07:41.023Z,31.41
2022-07-29T14:10:10.225Z,32.64
2022-07-29T14:12:40.502Z,33.00
2022-07-29T14:15:09.895Z,33.08
2022-07-29T14:17:38.135Z,32.47
2022-07-29T14:20:07.634Z,32.89
2022-07-29T14:22:38.980Z,32.91
2022-07-29T14:25:14.683Z,32.87
2022-07-29T14:27:45.383Z,32.63
2022-07-29T14:30:14.538Z,32.64
2022-07-29T14:32:43.129Z,32.89
2022-07-29T14:35:11.741Z,33.27
2022-07-29T14:37:41.263Z,34.59
2022-07-29T14:40:11.482Z,34.84
2022-07-29T14:42:40.636Z,33.90
2022-07-29T14:45:11.734Z,33.77
2022-07-29T14:47:40.737Z,34.27
2022-07-29T14:50:10.086Z,34.15
2022-07-29T14:52:38.405Z,33.93
2022-07-29T14:55:16.421Z,34.49
2022-07-29T14:57:47.970Z,35.20
2022-07-29T15:00:18.711Z,34.23
2022-07-29T15:03:01.452Z,34.95
2022-07-29T15:05:30.966Z,35.26
2022-07-29T15:07:59.927Z,34.86
2022-07-29T15:10:28.431Z,34.42
2022-07-29T15:12:58.568Z,34.06
2022-07-29T15:15:28.452Z,33.35
2022-07-29T15:17:56.714Z,32.45
2022-07-29T15:20:28.249Z,32.95
2022-07-29T15:22:57.204Z,32.56
2022-07-29T15:25:25.462Z,32.48
2022-07-29T15:28:00.990Z,32.96
2022-07-29T15:30:34.270Z,33.65
2022-07-29T15:33:04.201Z,33.83
2022-07-29T15:35:32.612Z,35.30
2022-07-29T15:38:01.223Z,35.80
2022-07-29T15:40:29.879Z,36.29
2022-07-29T15:43:01.842Z,36.46
2022-07-29T15:45:32.463Z,37.55
2022-07-29T15:48:00.899Z,38.09
2022-07-29T15:50:29.584Z,38.67
2022-07-29T15:52:57.821Z,39.59
2022-07-29T15:55:26.427Z,39.91
2022-07-29T15:58:00.009Z,40.99
2022-07-29T16:00:29.067Z,41.62
2022-07-29T16:02:58.963Z,41.81
2022-07-29T16:05:29.938Z,42.41
2022-07-29T16:08:00.992Z,42.74
2022-07-29T16:10:29.613Z,43.52
2022-07-29T16:12:58.220Z,44.01
2022-07-29T16:15:26.677Z,44.26
2022-07-29T16:17:54.907Z,44.45
2022-07-29T16:20:24.555Z,44.18
2022-07-29T16:22:53.813Z,42.58
2022-07-29T16:25:38.406Z,41.74
2022-07-29T16:28:11.470Z,41.16
2022-07-29T16:30:39.741Z,41.89
2022-07-29T16:33:08.570Z,42.72
2022-07-29T16:35:40.510Z,43.11
2022-07-29T16:38:09.347Z,42.83
2022-07-29T16:40:37.698Z,42.43
2022-07-29T16:43:06.504Z,42.36
2022-07-29T16:45:43.933Z,42.21
2022-07-29T16:50:45.046Z,41.36
2022-07-29T16:53:13.408Z,40.14
2022-07-29T16:55:42.430Z,39.56
2022-07-29T16:58:11.184Z,38.82
2022-07-29T17:00:39.752Z,37.68
2022-07-29T17:03:08.007Z,36.15
2022-07-29T17:05:50.527Z,34.00
2022-07-29T17:08:23.903Z,32.70
2022-07-29T17:10:52.203Z,32.58
2022-07-29T17:13:20.995Z,31.44
2022-07-29T17:15:49.242Z,31.54
2022-07-29T17:18:17.702Z,31.10
2022-07-29T17:20:45.955Z,30.74
2022-07-29T17:23:14.150Z,30.48
2022-07-29T17:25:43.809Z,29.39
2022-07-29T17:28:12.130Z,30.05
2022-07-29T17:30:40.414Z,29.88
2022-07-29T17:33:08.678Z,29.52
2022-07-29T17:35:54.644Z,28.85
2022-07-29T17:38:22.959Z,29.05
2022-07-29T17:40:58.454Z,28.84
2022-07-29T17:43:27.989Z,28.63
2022-07-29T17:45:59.421Z,28.51
2022-07-29T17:48:28.403Z,28.28
2022-07-29T17:50:58.206Z,27.17
2022-07-29T17:53:26.472Z,26.74
2022-07-29T17:55:58.289Z,27.86
2022-07-29T17:58:26.856Z,27.76
2022-07-29T18:00:55.124Z,26.95
2022-07-29T18:03:24.004Z,27.36
2022-07-29T18:05:52.455Z,27.27
2022-07-29T18:08:20.997Z,27.21
2022-07-29T18:10:49.427Z,27.13
2022-07-29T18:13:20.361Z,26.79
2022-07-29T18:15:48.680Z,26.70
2022-07-29T18:18:18.511Z,26.82
2022-07-29T18:20:47.103Z,26.73
2022-07-29T18:23:15.742Z,26.47
2022-07-29T18:25:44.199Z,26.07
2022-07-29T18:28:12.502Z,25.32
2022-07-29T18:30:42.219Z,26.36
2022-07-29T18:33:22.342Z,26.29
2022-07-29T18:35:52.550Z,26.28
2022-07-29T18:38:41.317Z,26.29
2022-07-29T18:41:09.648Z,26.33
2022-07-29T18:43:37.876Z,26.25
2022-07-29T18:46:07.683Z,26.11
2022-07-29T18:48:36.417Z,26.06
2022-07-29T18:51:09.278Z,26.12
2022-07-29T18:53:37.992Z,26.20
2022-07-29T18:56:06.458Z,26.00
2022-07-29T18:58:34.663Z,25.90
2022-07-29T19:01:03.103Z,25.80
2022-07-29T19:03:32.753Z,25.96
2022-07-29T19:06:01.270Z,25.96
2022-07-29T19:08:29.553Z,25.87
2022-07-29T19:10:57.803Z,24.97
2022-07-29T19:13:26.352Z,25.59
2022-07-29T19:15:54.662Z,25.68
2022-07-29T19:18:22.864Z,25.65
2022-07-29T19:20:52.640Z,25.66
2022-07-29T19:23:20.906Z,25.59
2022-07-29T19:25:53.380Z,25.57
2022-07-29T19:28:22.424Z,25.61
2022-07-29T19:30:50.939Z,25.60
2022-07-29T19:33:19.375Z,25.63
2022-07-29T19:35:50.370Z,25.62
2022-07-29T19:38:22.845Z,25.60
2022-07-29T19:40:51.041Z,25.12
2022-07-29T19:43:50.632Z,25.59
2022-07-29T19:46:07.770Z,25.55
2022-07-29T19:48:36.035Z,25.54
2022-07-29T19:51:04.355Z,25.54
2022-07-29T19:53:34.077Z,25.46
2022-07-29T19:56:02.281Z,25.19
2022-07-29T19:58:32.964Z,25.39
2022-07-29T20:01:01.164Z,25.37
2022-07-29T20:03:29.480Z,24.30
2022-07-29T20:05:57.719Z,25.12
2022-07-29T20:08:25.938Z,25.54
2022-07-29T20:10:56.176Z,24.90
2022-07-29T20:13:24.696Z,25.36
2022-07-29T20:15:52.982Z,25.03
2022-07-29T20:18:21.201Z,24.83
2022-07-29T20:20:49.920Z,24.43
2022-07-29T20:23:19.585Z,24.01
2022-07-29T20:25:47.828Z,23.72
2022-07-29T20:28:17.557Z,23.47
2022-07-29T20:30:47.623Z,23.18
2022-07-29T20:33:16.383Z,22.84
2022-07-29T20:35:44.810Z,22.62
2022-07-29T20:38:17.794Z,22.39
2022-07-29T20:40:46.701Z,22.13
2022-07-29T20:43:14.922Z,22.11
2022-07-29T20:45:44.616Z,21.87
2022-07-29T20:48:14.035Z,22.03
2022-07-29T20:50:42.931Z,21.83
2022-07-29T20:53:11.325Z,21.57
2022-07-29T20:55:39.770Z,20.44
2022-07-29T20:58:09.243Z,21.02
2022-07-29T21:00:37.756Z,20.41
2022-07-29T21:03:07.675Z,18.83
2022-07-29T21:05:38.045Z,20.73
2022-07-29T21:08:07.004Z,20.80
2022-07-29T21:10:35.410Z,19.33
2022-07-29T21:13:03.887Z,21.20
2022-07-29T21:15:32.809Z,20.40
2022-07-29T21:18:03.194Z,21.01
2022-07-29T21:20:34.063Z,21.30
2022-07-29T21:23:02.811Z,21.44
2022-07-29T21:25:31.035Z,21.58
2022-07-29T21:28:16.668Z,21.36
2022-07-29T21:30:44.969Z,20.86
2022-07-29T21:33:13.386Z,20.40
2022-07-29T21:36:06.311Z,20.69
2022-07-29T21:38:31.363Z,20.81
2022-07-29T21:40:59.610Z,20.78
2022-07-29T21:43:29.035Z,20.76
2022-07-29T21:45:57.717Z,20.04
2022-07-29T21:48:27.859Z,19.60
2022-07-29T21:50:58.146Z,20.71
2022-07-29T21:53:28.736Z,20.80
2022-07-29T21:55:59.073Z,20.89
2022-07-29T21:58:27.713Z,20.84
2022-07-29T22:00:56.047Z,20.80
2022-07-29T22:03:24.422Z,21.18
2022-07-29T22:05:53.164Z,21.26
2022-07-29T22:08:22.922Z,21.31
2022-07-29T22:10:51.236Z,21.27
2022-07-29T22:13:19.513Z,21.27
2022-07-29T22:15:48.268Z,21.25
2022-07-29T22:18:20.669Z,20.83
2022-07-29T22:20:50.134Z,21.20
2022-07-29T22:23:18.478Z,21.29
2022-07-29T22:25:48.223Z,21.36
2022-07-29T22:28:16.699Z,21.00
2022-07-29T22:30:45.017Z,20.68
2022-07-29T22:33:17.835Z,21.08
2022-07-29T22:35:48.715Z,20.45
2022-07-29T22:38:17.462Z,20.99
2022-07-29T22:40:45.673Z,19.60
2022-07-29T22:43:16.822Z,21.07
2022-07-29T22:45:45.400Z,20.78
2022-07-29T22:48:13.864Z,20.16
2022-07-29T22:50:42.445Z,20.66
2022-07-29T22:53:11.151Z,21.01
2022-07-29T22:55:39.433Z,19.76
2022-07-29T22:58:07.719Z,20.92
2022-07-29T23:00:37.822Z,19.86
2022-07-29T23:03:06.047Z,20.88
2022-07-29T23:05:34.554Z,20.82
2022-07-29T23:08:02.792Z,20.78
2022-07-29T23:10:31.041Z,20.77
2022-07-29T23:12:59.197Z,20.78
2022-07-29T23:15:27.443Z,20.82
2022-07-29T23:17:57.100Z,20.89
2022-07-29T23:20:25.413Z,20.93
2022-07-29T23:22:53.843Z,21.01
2022-07-29T23:25:22.539Z,20.95
2022-07-29T23:27:50.918Z,20.94
2022-07-29T23:30:19.670Z,20.41
2022-07-29T23:32:47.993Z,21.06
2022-07-29T23:35:17.542Z,21.08
2022-07-29T23:37:45.906Z,20.93
2022-07-29T23:40:15.115Z,20.08
2022-07-29T23:42:43.839Z,20.70
2022-07-29T23:45:13.511Z,20.97
2022-07-29T23:47:42.220Z,20.95
2022-07-29T23:50:13.331Z,20.94
2022-07-29T23:52:43.332Z,20.74
2022-07-29T23:55:37.032Z,20.63
2022-07-29T23:58:01.327Z,20.50
